sensor_id;sensor_type;location;lat;lon;timestamp;temperature;humidity
36292;DHT22;22327;51.208;6.418;2023-07-31T00:01:50;19.90;99.90
36292;DHT22;22327;51.208;6.418;2023-07-31T00:04:50;19.90;99.90
36292;DHT22;22327;51.208;6.418;2023-07-31T00:07:51;19.80;99.90
36292;DHT22;22327;51.208;6.418;2023-07-31T00:10:52;19.80;99.90
36292;DHT22;22327;51.208;6.418;2023-07-31T00:13:53;19.90;99.90
36292;DHT22;22327;51.208;6.418;2023-07-31T00:16:54;19.90;99.90
36292;DHT22;22327;51.208;6.418;2023-07-31T00:19:54;20.00;99.90
36292;DHT22;22327;51.208;6.418;2023-07-31T00:22:55;20.00;99.90
36292;DHT22;22327;51.208;6.418;2023-07-31T00:25:56;20.00;99.90
36292;DHT22;22327;51.208;6.418;2023-07-31T00:28:56;20.10;99.90
36292;DHT22;22327;51.208;6.418;2023-07-31T00:31:57;20.10;99.90
36292;DHT22;22327;51.208;6.418;2023-07-31T00:34:57;20.20;99.90
36292;DHT22;22327;51.208;6.418;2023-07-31T00:37:58;20.30;99.90
36292;DHT22;22327;51.208;6.418;2023-07-31T00:40:59;20.30;99.90
36292;DHT22;22327;51.208;6.418;2023-07-31T00:43:59;20.30;99.90
36292;DHT22;22327;51.208;6.418;2023-07-31T00:47:00;20.30;99.90
36292;DHT22;22327;51.208;6.418;2023-07-31T00:50:01;20.30;99.90
36292;DHT22;22327;51.208;6.418;2023-07-31T00:53:01;20.30;99.90
36292;DHT22;22327;51.208;6.418;2023-07-31T00:56:03;20.30;99.90
36292;DHT22;22327;51.208;6.418;2023-07-31T00:59:04;20.30;99.90
36292;DHT22;22327;51.208;6.418;2023-07-31T01:02:05;20.30;99.90
36292;DHT22;22327;51.208;6.418;2023-07-31T01:05:06;20.20;99.90
36292;DHT22;22327;51.208;6.418;2023-07-31T01:08:24;20.20;99.90
36292;DHT22;22327;51.208;6.418;2023-07-31T01:11:30;20.30;99.90
36292;DHT22;22327;51.208;6.418;2023-07-31T01:14:31;20.30;99.90
36292;DHT22;22327;51.208;6.418;2023-07-31T01:17:31;20.30;99.90
36292;DHT22;22327;51.208;6.418;2023-07-31T01:20:33;20.30;99.90
36292;DHT22;22327;51.208;6.418;2023-07-31T01:23:58;20.20;99.90
36292;DHT22;22327;51.208;6.418;2023-07-31T01:27:12;20.20;99.90
36292;DHT22;22327;51.208;6.418;2023-07-31T01:30:16;20.20;99.90
36292;DHT22;22327;51.208;6.418;2023-07-31T01:33:19;20.20;99.90
36292;DHT22;22327;51.208;6.418;2023-07-31T01:36:20;20.20;99.90
36292;DHT22;22327;51.208;6.418;2023-07-31T01:39:20;20.20;99.90
36292;DHT22;22327;51.208;6.418;2023-07-31T01:42:21;20.10;99.90
36292;DHT22;22327;51.208;6.418;2023-07-31T01:45:22;20.10;99.90
36292;DHT22;22327;51.208;6.418;2023-07-31T01:48:22;20.20;99.90
36292;DHT22;22327;51.208;6.418;2023-07-31T01:51:23;20.20;99.90
36292;DHT22;22327;51.208;6.418;2023-07-31T01:54:23;20.20;99.90
36292;DHT22;22327;51.208;6.418;2023-07-31T01:57:24;20.20;99.90
36292;DHT22;22327;51.208;6.418;2023-07-31T02:00:24;20.20;99.90
36292;DHT22;22327;51.208;6.418;2023-07-31T02:03:25;20.10;99.90
36292;DHT22;22327;51.208;6.418;2023-07-31T02:06:25;20.10;99.90
36292;DHT22;22327;51.208;6.418;2023-07-31T02:09:26;20.10;99.90
36292;DHT22;22327;51.208;6.418;2023-07-31T02:12:26;20.10;99.90
36292;DHT22;22327;51.208;6.418;2023-07-31T02:15:27;20.10;99.90
36292;DHT22;22327;51.208;6.418;2023-07-31T02:18:27;20.10;99.90
36292;DHT22;22327;51.208;6.418;2023-07-31T02:21:28;20.20;99.90
36292;DHT22;22327;51.208;6.418;2023-07-31T02:24:28;20.20;99.90
36292;DHT22;22327;51.208;6.418;2023-07-31T02:27:29;20.20;99.90
36292;DHT22;22327;51.208;6.418;2023-07-31T02:30:29;20.30;99.90
36292;DHT22;22327;51.208;6.418;2023-07-31T02:33:30;20.40;99.90
36292;DHT22;22327;51.208;6.418;2023-07-31T02:36:30;20.40;99.90
36292;DHT22;22327;51.208;6.418;2023-07-31T02:39:31;20.50;99.90
36292;DHT22;22327;51.208;6.418;2023-07-31T02:42:31;20.60;99.90
36292;DHT22;22327;51.208;6.418;2023-07-31T02:45:32;20.60;99.90
36292;DHT22;22327;51.208;6.418;2023-07-31T02:48:32;20.60;99.90
36292;DHT22;22327;51.208;6.418;2023-07-31T02:51:33;20.60;99.90
36292;DHT22;22327;51.208;6.418;2023-07-31T02:54:33;20.60;99.90
36292;DHT22;22327;51.208;6.418;2023-07-31T02:57:34;20.70;99.90
36292;DHT22;22327;51.208;6.418;2023-07-31T03:00:34;20.70;99.90
36292;DHT22;22327;51.208;6.418;2023-07-31T03:03:35;20.80;99.90
36292;DHT22;22327;51.208;6.418;2023-07-31T03:06:36;20.70;99.90
36292;DHT22;22327;51.208;6.418;2023-07-31T03:09:36;20.70;99.90
36292;DHT22;22327;51.208;6.418;2023-07-31T03:12:37;20.70;99.90
36292;DHT22;22327;51.208;6.418;2023-07-31T03:15:37;20.70;99.90
36292;DHT22;22327;51.208;6.418;2023-07-31T03:18:38;20.80;99.90
36292;DHT22;22327;51.208;6.418;2023-07-31T03:21:38;20.80;99.90
36292;DHT22;22327;51.208;6.418;2023-07-31T03:24:39;20.70;99.90
36292;DHT22;22327;51.208;6.418;2023-07-31T03:27:39;20.70;99.90
36292;DHT22;22327;51.208;6.418;2023-07-31T03:30:40;20.70;99.90
36292;DHT22;22327;51.208;6.418;2023-07-31T03:33:40;20.80;99.90
36292;DHT22;22327;51.208;6.418;2023-07-31T03:36:41;20.80;99.90
36292;DHT22;22327;51.208;6.418;2023-07-31T03:39:41;20.80;99.90
36292;DHT22;22327;51.208;6.418;2023-07-31T03:42:42;20.90;99.90
36292;DHT22;22327;51.208;6.418;2023-07-31T03:45:42;20.90;99.90
36292;DHT22;22327;51.208;6.418;2023-07-31T03:48:43;21.00;99.90
36292;DHT22;22327;51.208;6.418;2023-07-31T03:51:43;21.00;99.90
36292;DHT22;22327;51.208;6.418;2023-07-31T03:54:44;21.10;99.90
36292;DHT22;22327;51.208;6.418;2023-07-31T03:57:45;21.00;99.90
36292;DHT22;22327;51.208;6.418;2023-07-31T04:00:46;21.00;99.90
36292;DHT22;22327;51.208;6.418;2023-07-31T04:03:47;21.00;99.90
36292;DHT22;22327;51.208;6.418;2023-07-31T04:06:47;21.00;99.90
36292;DHT22;22327;51.208;6.418;2023-07-31T04:09:48;21.00;99.90
36292;DHT22;22327;51.208;6.418;2023-07-31T04:12:48;20.90;99.90
36292;DHT22;22327;51.208;6.418;2023-07-31T04:15:49;21.00;99.90
36292;DHT22;22327;51.208;6.418;2023-07-31T04:18:51;21.00;99.90
36292;DHT22;22327;51.208;6.418;2023-07-31T04:21:51;21.10;99.90
36292;DHT22;22327;51.208;6.418;2023-07-31T04:24:52;21.10;99.90
36292;DHT22;22327;51.208;6.418;2023-07-31T04:27:52;21.10;99.90
36292;DHT22;22327;51.208;6.418;2023-07-31T04:30:53;21.10;99.90
36292;DHT22;22327;51.208;6.418;2023-07-31T04:33:53;21.20;99.90
36292;DHT22;22327;51.208;6.418;2023-07-31T04:36:54;21.20;99.90
36292;DHT22;22327;51.208;6.418;2023-07-31T04:39:55;21.20;99.90
36292;DHT22;22327;51.208;6.418;2023-07-31T04:42:55;21.20;99.90
36292;DHT22;22327;51.208;6.418;2023-07-31T04:45:56;21.20;99.90
36292;DHT22;22327;51.208;6.418;2023-07-31T04:48:56;21.30;99.90
36292;DHT22;22327;51.208;6.418;2023-07-31T04:51:57;21.30;99.90
36292;DHT22;22327;51.208;6.418;2023-07-31T04:54:57;21.40;99.90
36292;DHT22;22327;51.208;6.418;2023-07-31T04:57:59;21.40;99.90
36292;DHT22;22327;51.208;6.418;2023-07-31T05:00:59;21.50;99.90
36292;DHT22;22327;51.208;6.418;2023-07-31T05:04:00;21.50;99.90
36292;DHT22;22327;51.208;6.418;2023-07-31T05:07:00;21.50;99.90
36292;DHT22;22327;51.208;6.418;2023-07-31T05:10:01;21.50;99.90
36292;DHT22;22327;51.208;6.418;2023-07-31T05:13:01;21.50;99.90
36292;DHT22;22327;51.208;6.418;2023-07-31T05:16:02;21.60;99.90
36292;DHT22;22327;51.208;6.418;2023-07-31T05:19:03;21.60;99.90
36292;DHT22;22327;51.208;6.418;2023-07-31T05:22:03;21.60;99.90
36292;DHT22;22327;51.208;6.418;2023-07-31T05:25:04;21.60;99.90
36292;DHT22;22327;51.208;6.418;2023-07-31T05:28:05;21.70;99.90
36292;DHT22;22327;51.208;6.418;2023-07-31T05:31:06;21.70;99.90
36292;DHT22;22327;51.208;6.418;2023-07-31T05:34:07;21.80;99.90
36292;DHT22;22327;51.208;6.418;2023-07-31T05:37:07;21.80;99.90
36292;DHT22;22327;51.208;6.418;2023-07-31T05:40:08;21.90;99.90
36292;DHT22;22327;51.208;6.418;2023-07-31T05:43:09;21.90;99.90
36292;DHT22;22327;51.208;6.418;2023-07-31T05:46:09;21.90;99.90
36292;DHT22;22327;51.208;6.418;2023-07-31T05:49:12;21.90;99.90
36292;DHT22;22327;51.208;6.418;2023-07-31T05:52:12;21.80;99.90
36292;DHT22;22327;51.208;6.418;2023-07-31T05:55:13;21.70;99.90
36292;DHT22;22327;51.208;6.418;2023-07-31T05:58:13;21.60;99.90
36292;DHT22;22327;51.208;6.418;2023-07-31T06:01:15;21.50;99.90
36292;DHT22;22327;51.208;6.418;2023-07-31T06:04:16;21.40;99.90
36292;DHT22;22327;51.208;6.418;2023-07-31T06:07:16;21.30;99.90
36292;DHT22;22327;51.208;6.418;2023-07-31T06:10:17;21.20;99.90
36292;DHT22;22327;51.208;6.418;2023-07-31T06:13:17;21.10;99.90
36292;DHT22;22327;51.208;6.418;2023-07-31T06:16:18;21.00;99.90
36292;DHT22;22327;51.208;6.418;2023-07-31T06:19:18;21.00;99.90
36292;DHT22;22327;51.208;6.418;2023-07-31T06:22:20;21.10;99.90
36292;DHT22;22327;51.208;6.418;2023-07-31T06:25:21;21.10;99.90
36292;DHT22;22327;51.208;6.418;2023-07-31T06:28:23;21.10;99.90
36292;DHT22;22327;51.208;6.418;2023-07-31T06:31:27;21.10;99.90
36292;DHT22;22327;51.208;6.418;2023-07-31T06:34:27;21.10;99.90
36292;DHT22;22327;51.208;6.418;2023-07-31T06:37:28;21.10;99.90
36292;DHT22;22327;51.208;6.418;2023-07-31T06:40:29;21.10;99.90
36292;DHT22;22327;51.208;6.418;2023-07-31T06:43:30;21.20;99.90
36292;DHT22;22327;51.208;6.418;2023-07-31T06:46:30;21.20;99.90
36292;DHT22;22327;51.208;6.418;2023-07-31T06:49:31;21.20;99.90
36292;DHT22;22327;51.208;6.418;2023-07-31T06:52:31;21.20;99.90
36292;DHT22;22327;51.208;6.418;2023-07-31T06:55:32;21.20;99.90
36292;DHT22;22327;51.208;6.418;2023-07-31T06:58:32;21.00;99.90
36292;DHT22;22327;51.208;6.418;2023-07-31T07:01:33;20.90;99.90
36292;DHT22;22327;51.208;6.418;2023-07-31T07:04:34;20.90;99.90
36292;DHT22;22327;51.208;6.418;2023-07-31T07:07:35;20.90;99.90
36292;DHT22;22327;51.208;6.418;2023-07-31T07:10:36;20.90;99.90
36292;DHT22;22327;51.208;6.418;2023-07-31T07:13:37;20.80;99.90
36292;DHT22;22327;51.208;6.418;2023-07-31T07:16:37;20.80;99.90
36292;DHT22;22327;51.208;6.418;2023-07-31T07:19:40;20.80;99.90
36292;DHT22;22327;51.208;6.418;2023-07-31T07:22:41;20.70;99.90
36292;DHT22;22327;51.208;6.418;2023-07-31T07:25:45;20.60;99.90
36292;DHT22;22327;51.208;6.418;2023-07-31T07:28:45;20.60;99.90
36292;DHT22;22327;51.208;6.418;2023-07-31T07:31:46;20.50;99.90
36292;DHT22;22327;51.208;6.418;2023-07-31T07:34:47;20.60;99.90
36292;DHT22;22327;51.208;6.418;2023-07-31T07:37:51;20.50;99.90
36292;DHT22;22327;51.208;6.418;2023-07-31T07:40:51;20.50;99.90
36292;DHT22;22327;51.208;6.418;2023-07-31T07:43:53;20.50;99.90
36292;DHT22;22327;51.208;6.418;2023-07-31T07:46:54;20.50;99.90
36292;DHT22;22327;51.208;6.418;2023-07-31T07:49:54;20.50;99.90
36292;DHT22;22327;51.208;6.418;2023-07-31T07:52:55;20.70;99.90
36292;DHT22;22327;51.208;6.418;2023-07-31T07:55:55;20.80;99.90
36292;DHT22;22327;51.208;6.418;2023-07-31T07:58:56;21.00;99.90
36292;DHT22;22327;51.208;6.418;2023-07-31T08:01:56;21.20;99.90
36292;DHT22;22327;51.208;6.418;2023-07-31T08:04:57;21.40;99.90
36292;DHT22;22327;51.208;6.418;2023-07-31T08:07:58;21.50;99.90
36292;DHT22;22327;51.208;6.418;2023-07-31T08:10:58;21.50;99.90
36292;DHT22;22327;51.208;6.418;2023-07-31T08:13:59;21.40;99.90
36292;DHT22;22327;51.208;6.418;2023-07-31T08:17:00;21.30;99.90
36292;DHT22;22327;51.208;6.418;2023-07-31T08:20:00;21.40;99.90
36292;DHT22;22327;51.208;6.418;2023-07-31T08:23:01;21.40;99.90
36292;DHT22;22327;51.208;6.418;2023-07-31T08:26:02;21.50;99.90
36292;DHT22;22327;51.208;6.418;2023-07-31T08:29:02;21.90;99.90
36292;DHT22;22327;51.208;6.418;2023-07-31T08:32:03;22.20;99.90
36292;DHT22;22327;51.208;6.418;2023-07-31T08:35:04;22.20;99.90
36292;DHT22;22327;51.208;6.418;2023-07-31T08:38:05;22.20;99.90
36292;DHT22;22327;51.208;6.418;2023-07-31T08:41:05;22.20;99.90
36292;DHT22;22327;51.208;6.418;2023-07-31T08:44:07;22.20;99.90
36292;DHT22;22327;51.208;6.418;2023-07-31T08:47:08;22.20;99.90
36292;DHT22;22327;51.208;6.418;2023-07-31T08:50:10;22.10;99.90
36292;DHT22;22327;51.208;6.418;2023-07-31T08:53:12;21.80;99.90
36292;DHT22;22327;51.208;6.418;2023-07-31T08:56:13;21.60;99.90
36292;DHT22;22327;51.208;6.418;2023-07-31T08:59:15;21.40;99.90
36292;DHT22;22327;51.208;6.418;2023-07-31T09:02:19;21.40;99.90
36292;DHT22;22327;51.208;6.418;2023-07-31T09:05:19;21.20;99.90
36292;DHT22;22327;51.208;6.418;2023-07-31T09:08:21;21.20;99.90
36292;DHT22;22327;51.208;6.418;2023-07-31T09:11:24;21.20;99.90
36292;DHT22;22327;51.208;6.418;2023-07-31T09:14:25;21.20;99.90
36292;DHT22;22327;51.208;6.418;2023-07-31T09:17:33;21.10;99.90
36292;DHT22;22327;51.208;6.418;2023-07-31T09:20:35;21.20;99.90
36292;DHT22;22327;51.208;6.418;2023-07-31T09:23:44;21.20;99.90
36292;DHT22;22327;51.208;6.418;2023-07-31T09:26:44;21.20;99.90
36292;DHT22;22327;51.208;6.418;2023-07-31T09:29:45;21.10;99.90
36292;DHT22;22327;51.208;6.418;2023-07-31T09:33:04;21.10;99.90
36292;DHT22;22327;51.208;6.418;2023-07-31T09:36:06;21.20;99.90
36292;DHT22;22327;51.208;6.418;2023-07-31T09:39:09;21.30;99.90
36292;DHT22;22327;51.208;6.418;2023-07-31T09:42:10;21.40;99.90
36292;DHT22;22327;51.208;6.418;2023-07-31T09:45:11;21.40;99.90
36292;DHT22;22327;51.208;6.418;2023-07-31T09:48:13;21.30;99.90
36292;DHT22;22327;51.208;6.418;2023-07-31T09:51:16;21.20;99.90
36292;DHT22;22327;51.208;6.418;2023-07-31T09:54:17;21.10;99.90
36292;DHT22;22327;51.208;6.418;2023-07-31T09:57:17;21.10;99.90
36292;DHT22;22327;51.208;6.418;2023-07-31T10:00:19;21.10;99.90
36292;DHT22;22327;51.208;6.418;2023-07-31T10:03:22;21.10;99.90
36292;DHT22;22327;51.208;6.418;2023-07-31T10:06:23;21.30;99.90
36292;DHT22;22327;51.208;6.418;2023-07-31T10:09:25;21.50;99.90
36292;DHT22;22327;51.208;6.418;2023-07-31T10:12:28;21.60;99.90
36292;DHT22;22327;51.208;6.418;2023-07-31T10:15:29;21.70;99.90
36292;DHT22;22327;51.208;6.418;2023-07-31T10:18:31;21.80;99.90
36292;DHT22;22327;51.208;6.418;2023-07-31T10:21:32;21.90;99.90
36292;DHT22;22327;51.208;6.418;2023-07-31T10:24:36;22.00;99.90
36292;DHT22;22327;51.208;6.418;2023-07-31T10:27:38;22.20;99.90
36292;DHT22;22327;51.208;6.418;2023-07-31T10:30:39;22.30;99.90
36292;DHT22;22327;51.208;6.418;2023-07-31T10:33:40;22.50;99.90
36292;DHT22;22327;51.208;6.418;2023-07-31T10:36:41;22.50;99.90
36292;DHT22;22327;51.208;6.418;2023-07-31T10:39:42;22.60;99.90
36292;DHT22;22327;51.208;6.418;2023-07-31T10:42:55;22.60;99.90
36292;DHT22;22327;51.208;6.418;2023-07-31T10:45:57;22.70;99.90
36292;DHT22;22327;51.208;6.418;2023-07-31T10:49:01;22.50;99.90
36292;DHT22;22327;51.208;6.418;2023-07-31T10:52:03;22.50;99.90
36292;DHT22;22327;51.208;6.418;2023-07-31T10:56:00;22.60;99.90
36292;DHT22;22327;51.208;6.418;2023-07-31T10:58:36;22.80;99.90
36292;DHT22;22327;51.208;6.418;2023-07-31T11:01:53;22.70;99.90
36292;DHT22;22327;51.208;6.418;2023-07-31T11:05:10;22.80;99.90
36292;DHT22;22327;51.208;6.418;2023-07-31T11:08:18;22.80;99.90
36292;DHT22;22327;51.208;6.418;2023-07-31T11:11:21;22.90;99.90
36292;DHT22;22327;51.208;6.418;2023-07-31T11:14:21;23.00;99.90
36292;DHT22;22327;51.208;6.418;2023-07-31T11:17:25;23.00;99.90
36292;DHT22;22327;51.208;6.418;2023-07-31T11:20:27;23.10;99.90
36292;DHT22;22327;51.208;6.418;2023-07-31T11:23:30;23.10;99.90
36292;DHT22;22327;51.208;6.418;2023-07-31T11:26:30;23.00;99.90
36292;DHT22;22327;51.208;6.418;2023-07-31T11:29:31;23.00;99.90
36292;DHT22;22327;51.208;6.418;2023-07-31T11:32:31;23.10;99.90
36292;DHT22;22327;51.208;6.418;2023-07-31T11:35:33;23.00;99.10
36292;DHT22;22327;51.208;6.418;2023-07-31T11:38:34;23.10;99.90
36292;DHT22;22327;51.208;6.418;2023-07-31T11:41:35;23.20;99.80
36292;DHT22;22327;51.208;6.418;2023-07-31T11:44:41;23.30;99.50
36292;DHT22;22327;51.208;6.418;2023-07-31T11:47:48;23.30;99.90
36292;DHT22;22327;51.208;6.418;2023-07-31T11:50:53;23.30;99.60
36292;DHT22;22327;51.208;6.418;2023-07-31T11:53:57;23.20;99.80
36292;DHT22;22327;51.208;6.418;2023-07-31T11:56:58;23.20;99.90
36292;DHT22;22327;51.208;6.418;2023-07-31T12:00:26;23.10;99.50
36292;DHT22;22327;51.208;6.418;2023-07-31T12:03:27;23.00;99.20
36292;DHT22;22327;51.208;6.418;2023-07-31T12:06:37;22.90;99.90
36292;DHT22;22327;51.208;6.418;2023-07-31T12:09:38;22.80;99.90
36292;DHT22;22327;51.208;6.418;2023-07-31T12:12:38;22.90;99.90
36292;DHT22;22327;51.208;6.418;2023-07-31T12:15:41;22.90;99.90
36292;DHT22;22327;51.208;6.418;2023-07-31T12:18:42;22.80;99.90
36292;DHT22;22327;51.208;6.418;2023-07-31T12:21:42;22.70;99.90
36292;DHT22;22327;51.208;6.418;2023-07-31T12:24:44;22.60;99.90
36292;DHT22;22327;51.208;6.418;2023-07-31T12:27:45;22.60;99.90
36292;DHT22;22327;51.208;6.418;2023-07-31T12:30:45;22.80;99.90
36292;DHT22;22327;51.208;6.418;2023-07-31T12:33:48;23.10;99.90
36292;DHT22;22327;51.208;6.418;2023-07-31T12:36:49;23.20;99.90
36292;DHT22;22327;51.208;6.418;2023-07-31T12:39:52;23.30;99.90
36292;DHT22;22327;51.208;6.418;2023-07-31T12:42:53;23.40;99.90
36292;DHT22;22327;51.208;6.418;2023-07-31T12:45:56;23.40;99.80
36292;DHT22;22327;51.208;6.418;2023-07-31T12:48:57;23.50;99.20
36292;DHT22;22327;51.208;6.418;2023-07-31T12:51:57;23.60;99.70
36292;DHT22;22327;51.208;6.418;2023-07-31T12:54:58;23.60;99.50
36292;DHT22;22327;51.208;6.418;2023-07-31T12:57:58;23.70;99.00
36292;DHT22;22327;51.208;6.418;2023-07-31T13:00:59;23.70;99.40
36292;DHT22;22327;51.208;6.418;2023-07-31T13:03:59;23.70;99.40
36292;DHT22;22327;51.208;6.418;2023-07-31T13:07:00;23.70;99.40
36292;DHT22;22327;51.208;6.418;2023-07-31T13:10:00;23.70;99.40
36292;DHT22;22327;51.208;6.418;2023-07-31T13:13:01;23.80;99.90
36292;DHT22;22327;51.208;6.418;2023-07-31T13:16:01;24.00;98.40
36292;DHT22;22327;51.208;6.418;2023-07-31T13:19:02;24.30;99.20
36292;DHT22;22327;51.208;6.418;2023-07-31T13:22:02;24.60;98.90
36292;DHT22;22327;51.208;6.418;2023-07-31T13:25:03;25.00;99.10
36292;DHT22;22327;51.208;6.418;2023-07-31T13:28:04;25.40;98.20
36292;DHT22;22327;51.208;6.418;2023-07-31T13:31:04;25.70;97.50
36292;DHT22;22327;51.208;6.418;2023-07-31T13:34:05;25.90;96.50
36292;DHT22;22327;51.208;6.418;2023-07-31T13:37:05;26.00;95.40
36292;DHT22;22327;51.208;6.418;2023-07-31T13:40:06;25.90;94.60
36292;DHT22;22327;51.208;6.418;2023-07-31T13:43:07;25.80;95.20
36292;DHT22;22327;51.208;6.418;2023-07-31T13:46:08;25.70;95.70
36292;DHT22;22327;51.208;6.418;2023-07-31T13:49:11;25.40;95.00
36292;DHT22;22327;51.208;6.418;2023-07-31T13:52:11;25.20;95.40
36292;DHT22;22327;51.208;6.418;2023-07-31T13:55:12;25.00;96.00
36292;DHT22;22327;51.208;6.418;2023-07-31T13:58:12;24.90;95.80
36292;DHT22;22327;51.208;6.418;2023-07-31T14:01:13;24.50;95.90
36292;DHT22;22327;51.208;6.418;2023-07-31T14:04:13;24.50;96.10
36292;DHT22;22327;51.208;6.418;2023-07-31T14:07:14;24.40;96.50
36292;DHT22;22327;51.208;6.418;2023-07-31T14:10:14;24.30;96.70
36292;DHT22;22327;51.208;6.418;2023-07-31T14:13:15;24.20;96.50
36292;DHT22;22327;51.208;6.418;2023-07-31T14:16:15;24.00;96.70
36292;DHT22;22327;51.208;6.418;2023-07-31T14:19:17;23.90;96.90
36292;DHT22;22327;51.208;6.418;2023-07-31T14:22:30;23.80;97.70
36292;DHT22;22327;51.208;6.418;2023-07-31T14:25:31;23.80;97.60
36292;DHT22;22327;51.208;6.418;2023-07-31T14:28:31;23.90;98.20
36292;DHT22;22327;51.208;6.418;2023-07-31T14:31:32;23.90;97.90
36292;DHT22;22327;51.208;6.418;2023-07-31T14:34:33;23.90;97.30
36292;DHT22;22327;51.208;6.418;2023-07-31T14:37:51;23.90;97.60
36292;DHT22;22327;51.208;6.418;2023-07-31T14:40:52;24.00;96.90
36292;DHT22;22327;51.208;6.418;2023-07-31T14:43:52;24.00;96.80
36292;DHT22;22327;51.208;6.418;2023-07-31T14:46:53;24.00;96.30
36292;DHT22;22327;51.208;6.418;2023-07-31T14:49:53;24.00;96.50
36292;DHT22;22327;51.208;6.418;2023-07-31T14:52:54;23.90;96.70
36292;DHT22;22327;51.208;6.418;2023-07-31T14:55:54;24.00;96.90
36292;DHT22;22327;51.208;6.418;2023-07-31T14:58:56;24.00;96.30
36292;DHT22;22327;51.208;6.418;2023-07-31T15:01:56;24.00;96.60
36292;DHT22;22327;51.208;6.418;2023-07-31T15:04:57;24.00;96.20
36292;DHT22;22327;51.208;6.418;2023-07-31T15:07:57;24.10;96.90
36292;DHT22;22327;51.208;6.418;2023-07-31T15:10:58;24.20;97.10
36292;DHT22;22327;51.208;6.418;2023-07-31T15:13:58;24.20;96.50
36292;DHT22;22327;51.208;6.418;2023-07-31T15:16:59;24.10;95.80
36292;DHT22;22327;51.208;6.418;2023-07-31T15:20:00;24.00;96.20
36292;DHT22;22327;51.208;6.418;2023-07-31T15:23:00;24.00;96.40
36292;DHT22;22327;51.208;6.418;2023-07-31T15:26:01;23.80;96.40
36292;DHT22;22327;51.208;6.418;2023-07-31T15:29:03;23.70;97.00
36292;DHT22;22327;51.208;6.418;2023-07-31T15:32:12;23.60;97.40
36292;DHT22;22327;51.208;6.418;2023-07-31T15:35:12;23.50;97.80
36292;DHT22;22327;51.208;6.418;2023-07-31T15:38:13;23.30;98.40
36292;DHT22;22327;51.208;6.418;2023-07-31T15:41:13;23.20;98.70
36292;DHT22;22327;51.208;6.418;2023-07-31T15:44:14;23.00;98.90
36292;DHT22;22327;51.208;6.418;2023-07-31T15:47:14;22.90;99.40
36292;DHT22;22327;51.208;6.418;2023-07-31T15:50:15;22.80;99.80
36292;DHT22;22327;51.208;6.418;2023-07-31T15:53:15;22.70;99.80
36292;DHT22;22327;51.208;6.418;2023-07-31T15:56:16;22.70;99.90
36292;DHT22;22327;51.208;6.418;2023-07-31T15:59:17;22.70;99.90
36292;DHT22;22327;51.208;6.418;2023-07-31T16:02:17;22.70;99.90
36292;DHT22;22327;51.208;6.418;2023-07-31T16:05:18;22.80;99.90
36292;DHT22;22327;51.208;6.418;2023-07-31T16:08:18;22.90;99.90
36292;DHT22;22327;51.208;6.418;2023-07-31T16:11:19;22.90;99.90
36292;DHT22;22327;51.208;6.418;2023-07-31T16:14:19;22.80;99.80
36292;DHT22;22327;51.208;6.418;2023-07-31T16:17:20;22.80;99.90
36292;DHT22;22327;51.208;6.418;2023-07-31T16:20:21;22.80;99.90
36292;DHT22;22327;51.208;6.418;2023-07-31T16:23:21;22.80;99.90
36292;DHT22;22327;51.208;6.418;2023-07-31T16:26:22;22.70;99.90
36292;DHT22;22327;51.208;6.418;2023-07-31T16:29:22;22.70;99.90
36292;DHT22;22327;51.208;6.418;2023-07-31T16:32:23;22.70;99.90
36292;DHT22;22327;51.208;6.418;2023-07-31T16:35:23;22.80;99.90
36292;DHT22;22327;51.208;6.418;2023-07-31T16:38:24;22.80;99.90
36292;DHT22;22327;51.208;6.418;2023-07-31T16:41:24;22.90;99.90
36292;DHT22;22327;51.208;6.418;2023-07-31T16:44:25;22.90;99.90
36292;DHT22;22327;51.208;6.418;2023-07-31T16:47:25;22.90;99.90
36292;DHT22;22327;51.208;6.418;2023-07-31T16:50:26;22.90;99.70
36292;DHT22;22327;51.208;6.418;2023-07-31T16:53:27;22.80;99.90
36292;DHT22;22327;51.208;6.418;2023-07-31T16:56:27;22.70;99.90
36292;DHT22;22327;51.208;6.418;2023-07-31T16:59:28;22.70;99.90
36292;DHT22;22327;51.208;6.418;2023-07-31T17:02:28;22.60;99.90
36292;DHT22;22327;51.208;6.418;2023-07-31T17:05:29;22.60;99.90
36292;DHT22;22327;51.208;6.418;2023-07-31T17:08:29;22.50;99.90
36292;DHT22;22327;51.208;6.418;2023-07-31T17:11:30;22.40;99.90
36292;DHT22;22327;51.208;6.418;2023-07-31T17:14:30;22.20;99.90
36292;DHT22;22327;51.208;6.418;2023-07-31T17:17:31;22.10;99.90
36292;DHT22;22327;51.208;6.418;2023-07-31T17:20:31;21.80;99.90
36292;DHT22;22327;51.208;6.418;2023-07-31T17:23:32;21.60;99.90
36292;DHT22;22327;51.208;6.418;2023-07-31T17:26:33;21.50;99.90
36292;DHT22;22327;51.208;6.418;2023-07-31T17:29:33;21.50;99.90
36292;DHT22;22327;51.208;6.418;2023-07-31T17:32:34;21.40;99.90
36292;DHT22;22327;51.208;6.418;2023-07-31T17:35:34;21.40;99.90
36292;DHT22;22327;51.208;6.418;2023-07-31T17:38:35;21.40;99.90
36292;DHT22;22327;51.208;6.418;2023-07-31T17:41:35;21.40;99.90
36292;DHT22;22327;51.208;6.418;2023-07-31T17:44:36;21.30;99.90
36292;DHT22;22327;51.208;6.418;2023-07-31T17:47:36;21.30;99.90
36292;DHT22;22327;51.208;6.418;2023-07-31T17:50:37;21.30;99.90
36292;DHT22;22327;51.208;6.418;2023-07-31T17:53:38;21.30;99.90
36292;DHT22;22327;51.208;6.418;2023-07-31T17:56:38;21.20;99.90
36292;DHT22;22327;51.208;6.418;2023-07-31T17:59:39;21.30;99.90
36292;DHT22;22327;51.208;6.418;2023-07-31T18:02:39;21.30;99.90
36292;DHT22;22327;51.208;6.418;2023-07-31T18:05:40;21.30;99.90
36292;DHT22;22327;51.208;6.418;2023-07-31T18:08:40;21.20;99.90
36292;DHT22;22327;51.208;6.418;2023-07-31T18:11:41;21.30;99.90
36292;DHT22;22327;51.208;6.418;2023-07-31T18:14:41;21.30;99.90
36292;DHT22;22327;51.208;6.418;2023-07-31T18:17:42;21.30;99.90
36292;DHT22;22327;51.208;6.418;2023-07-31T18:20:42;21.30;99.90
36292;DHT22;22327;51.208;6.418;2023-07-31T18:23:43;21.30;99.90
36292;DHT22;22327;51.208;6.418;2023-07-31T18:26:43;21.30;99.90
36292;DHT22;22327;51.208;6.418;2023-07-31T18:29:47;21.30;99.90
36292;DHT22;22327;51.208;6.418;2023-07-31T18:32:48;21.40;99.90
36292;DHT22;22327;51.208;6.418;2023-07-31T18:35:48;21.30;99.90
36292;DHT22;22327;51.208;6.418;2023-07-31T18:38:49;21.30;99.90
36292;DHT22;22327;51.208;6.418;2023-07-31T18:41:49;21.20;99.90
36292;DHT22;22327;51.208;6.418;2023-07-31T18:44:50;21.40;99.90
36292;DHT22;22327;51.208;6.418;2023-07-31T18:47:50;21.40;99.90
36292;DHT22;22327;51.208;6.418;2023-07-31T18:50:51;21.50;99.90
36292;DHT22;22327;51.208;6.418;2023-07-31T18:53:52;21.60;99.90
36292;DHT22;22327;51.208;6.418;2023-07-31T18:56:52;21.60;99.90
36292;DHT22;22327;51.208;6.418;2023-07-31T18:59:53;21.60;99.90
36292;DHT22;22327;51.208;6.418;2023-07-31T19:02:53;21.60;99.90
36292;DHT22;22327;51.208;6.418;2023-07-31T19:06:03;21.60;99.90